Flight Track Log - Related Links

Times and Time Zones

All times are in EDT time to prevent confusion due to time zone crossing. See the N717AN flight status page for this flight to view local times or setup timezone preferences in your user account.

Time Position Orientation Groundspeed Altitude Reporting Facility
EDT Latitude Longitude Course Direction KTS MPH feet Rate Location/Type
Wed 10:32:17 AM 51.4670 -0.4390 32° Northeast  Level FlightAware ADS-B
Wed 10:33:11 AM 51.4670 -0.4380 90° East 100 73 Climbing FlightAware ADS-B
Wed 10:34:17 AM 51.4670 -0.4370 90° East 100 66 Level FlightAware ADS-B
Wed 10:36:01 AM 51.4670 -0.4360 90° East 100 87 Level FlightAware ADS-B
Wed 10:36:21 AM 51.4660 -0.4360 180° South 100 173 Level FlightAware ADS-B
Wed 10:36:52 AM 51.4650 -0.4360 180° South 214 Descending FlightAware ADS-B
Wed 10:37:16 AM 51.4650 -0.4460 270° West 98 113 453 Level FlightAware ADS-B
Wed 10:37:45 AM 51.4650 -0.4860 270° West 191 220 400 1,800 Climbing FlightAware ADS-B
Wed 10:38:16 AM 51.4710 -0.5300 282° West 194 223 1,800 2,423 Climbing FlightAware ADS-B
Wed 10:38:37 AM 51.4811 -0.5564 302° West 198 228 2,500 2,069 Climbing FlightAware ADS-B
Wed 10:38:45 AM 51.4845 -0.5670 297° West 200 230 2,800 2,100 Climbing FlightAware ADS-B
Wed 10:38:57 AM 51.4892 -0.5832 295° West 199 229 3,200 2,000 Climbing FlightAware ADS-B
Wed 10:39:03 AM 51.4915 -0.5914 294° West 200 230 3,400 1,500 Climbing FlightAware ADS-B
Wed 10:39:17 AM 51.4975 -0.6095 298° West 211 243 3,700 1,241 Climbing FlightAware ADS-B
Wed 10:39:32 AM 51.5050 -0.6310 299° West 226 260 4,000 1,200 Climbing FlightAware ADS-B
Wed 10:39:47 AM 51.5130 -0.6557 297° West 245 282 4,300 1,364 Climbing FlightAware ADS-B
Wed 10:39:54 AM 51.5168 -0.6670 298° West 251 289 4,500 1,286 Climbing FlightAware ADS-B
Wed 10:40:01 AM 51.5214 -0.6776 305° West 258 297 4,600 1,200 Climbing FlightAware ADS-B
Wed 10:40:04 AM 51.5240 -0.6820 313° West 261 300 4,700 1,500 Climbing FlightAware ADS-B
Wed 10:40:09 AM 51.5285 -0.6879 321° Northwest 267 307 4,800 1,500 Climbing FlightAware ADS-B
Wed 10:40:12 AM 51.5316 -0.6911 327° Northwest 272 313 4,900 857 Climbing FlightAware ADS-B
Wed 10:40:16 AM 51.5362 -0.6947 334° Northwest 277 319 4,900 857 Level FlightAware ADS-B
Wed 10:40:19 AM 51.5402 -0.6969 341° North 280 322 5,000 2,000 Climbing FlightAware ADS-B
Wed 10:40:22 AM 51.5440 -0.6983 347° North 282 325 5,100 3,000 Climbing FlightAware ADS-B
Wed 10:40:25 AM 51.5483 -0.6993 351° North 283 326 5,300 2,250 Climbing FlightAware ADS-B
Wed 10:40:30 AM 51.5536 -0.6997 358° North 284 327 5,400 2,000 Climbing FlightAware ADS-B
Wed 10:40:34 AM 51.5598 -0.6991 North 285 328 5,600 2,400 Climbing FlightAware ADS-B
Wed 10:40:40 AM 51.5667 -0.6977 North 283 326 5,800 2,211 Climbing FlightAware ADS-B
Wed 10:40:53 AM 51.5840 -0.6938 North 286 329 6,300 1,895 Climbing FlightAware ADS-B
Wed 10:40:59 AM 51.5917 -0.6927 North 289 333 6,400 1,333 Climbing FlightAware ADS-B
Wed 10:41:02 AM 51.5958 -0.6925 North 287 330 6,500 1,385 Climbing FlightAware ADS-B
Wed 10:41:12 AM 51.6091 -0.6924 360° North 290 334 6,700 1,000 Climbing FlightAware ADS-B
Wed 10:41:20 AM 51.6204 -0.6932 358° North 294 338 6,800 783 Climbing FlightAware ADS-B
Wed 10:41:35 AM 51.6410 -0.6967 354° North 295 339 7,000 444 Climbing FlightAware ADS-B
Wed 10:41:47 AM 51.6571 -0.6995 354° North 295 339 7,000  Level FlightAware ADS-B
Wed 10:42:04 AM 51.6795 -0.7027 355° North 293 337 7,000  Level FlightAware ADS-B
Wed 10:42:22 AM 51.7049 -0.7068 354° North 315 362 7,000  Level FlightAware ADS-B
Wed 10:42:30 AM 51.7179 -0.7086 355° North 332 382 7,000  Level FlightAware ADS-B
Wed 10:42:46 AM 51.7428 -0.7108 357° North 353 406 7,000  Level FlightAware ADS-B
Wed 10:43:02 AM 51.7690 -0.7127 358° North 366 421 7,000 176 Level FlightAware ADS-B
Wed 10:43:20 AM 51.7992 -0.7164 356° North 362 417 7,100 522 Climbing FlightAware ADS-B
Wed 10:43:25 AM 51.8081 -0.7165 360° North 361 415 7,200 1,333 Climbing FlightAware ADS-B
Wed 10:43:29 AM 51.8144 -0.7158 North 361 415 7,300 1,333 Climbing FlightAware ADS-B
Wed 10:43:34 AM 51.8227 -0.7140 North 362 417 7,400 1,800 Climbing FlightAware ADS-B
Wed 10:43:39 AM 51.8314 -0.7107 13° North 363 418 7,600 2,842 Climbing FlightAware ADS-B
Wed 10:43:53 AM 51.8534 -0.6970 21° North 364 419 8,300 2,400 Climbing FlightAware ADS-B
Wed 10:44:09 AM 51.8780 -0.6791 24° Northeast 370 426 8,800 1,548 Climbing FlightAware ADS-B
Wed 10:44:24 AM 51.9031 -0.6612 24° Northeast 385 443 9,100 1,091 Climbing FlightAware ADS-B
Wed 10:44:42 AM 51.9324 -0.6406 24° Northeast 395 455 9,400 2,400 Climbing FlightAware ADS-B
Wed 10:45:14 AM 51.9860 -0.6054 22° Northeast 393 452 11,100 2,870 Climbing FlightAware ADS-B
Wed 10:45:28 AM 52.0121 -0.5944 15° North 401 461 11,600 2,045 Climbing FlightAware ADS-B
Wed 10:45:58 AM 52.0674 -0.5727 14° North 417 480 12,600 1,770 Climbing FlightAware ADS-B
Wed 10:46:29 AM 52.1250 -0.5495 14° North 417 480 13,400 1,200 Climbing FlightAware ADS-B
Wed 10:46:53 AM 52.1699 -0.5310 14° North 418 481 13,700 632 Climbing FlightAware ADS-B
Wed 10:47:07 AM 52.1955 -0.5237 10° North 416 479 13,800 286 Climbing FlightAware ADS-B
Wed 10:47:14 AM 52.2098 -0.5223 North 416 479 13,800 500 Level FlightAware ADS-B
Wed 10:47:19 AM 52.2186 -0.5225 359° North 415 478 13,900 800 Climbing FlightAware ADS-B
Wed 10:47:29 AM 52.2385 -0.5264 353° North 413 475 14,000 1,043 Climbing FlightAware ADS-B
Wed 10:47:42 AM 52.2620 -0.5377 344° North 417 480 14,300 1,636 Climbing FlightAware ADS-B
Wed 10:47:51 AM 52.2771 -0.5492 335° Northwest 414 476 14,600 2,727 Climbing FlightAware ADS-B
Wed 10:48:04 AM 52.2974 -0.5706 327° Northwest 409 471 15,300 2,769 Climbing FlightAware ADS-B
Wed 10:48:17 AM 52.3158 -0.5978 318° Northwest 409 471 15,800 2,211 Climbing FlightAware ADS-B
Wed 10:48:23 AM 52.3236 -0.6120 312° West 410 472 16,000 2,500 Climbing FlightAware ADS-B
Wed 10:48:53 AM 52.3606 -0.6840 310° West 412 474 17,300 2,476 Climbing FlightAware ADS-B
Wed 10:49:26 AM 52.4015 -0.7614 311° West 416 479 18,600 2,182 Climbing FlightAware ADS-B
Wed 10:49:59 AM 52.4431 -0.8416 310° West 426 490 19,700 1,479 Climbing FlightAware ADS-B
Wed 10:50:39 AM 52.4940 -0.9414 310° West 430 495 20,400 844 Climbing FlightAware ADS-B
Wed 10:51:03 AM 52.5258 -1.0020 311° West 434 499 20,600 545 Climbing FlightAware ADS-B
Wed 10:51:12 AM 52.5391 -1.0220 318° Northwest 435 501 20,700 444 Climbing FlightAware ADS-B
Wed 10:51:30 AM 52.5674 -1.0553 324° Northwest 438 504 20,800 500 Climbing FlightAware ADS-B
Wed 10:52:00 AM 52.6210 -1.1064 330° Northwest 441 507 21,100 885 Climbing FlightAware ADS-B
Wed 10:52:31 AM 52.6766 -1.1587 330° Northwest 450 518 21,700 1,810 Climbing FlightAware ADS-B
Wed 10:53:03 AM 52.7341 -1.2125 330° Northwest 451 519 23,000 2,156 Climbing FlightAware ADS-B
Wed 10:53:35 AM 52.7914 -1.2651 330° Northwest 452 520 24,000 1,714 Climbing FlightAware UK
Wed 10:53:38 AM 52.7950 -1.2680 330° Northwest 452 520 24,000 1,532 Level FlightAware ADS-B
Wed 10:54:22 AM 52.8750 -1.3440 330° Northwest 462 532 25,200 1,500 Climbing FlightAware ADS-B
Wed 10:55:02 AM 52.9500 -1.4130 331° Northwest 472 543 26,100 1,333 Climbing FlightAware ADS-B
Wed 10:55:43 AM 53.0320 -1.4870 332° Northwest 484 557 27,000 1,271 Climbing FlightAware ADS-B
Wed 10:56:27 AM 53.1167 -1.5737 328° Northwest 482 555 27,900 1,135 Climbing FlightAware ADS-B
Wed 10:56:57 AM 53.1715 -1.6379 325° Northwest 483 556 28,400 1,048 Climbing FlightAware ADS-B
Wed 10:57:30 AM 53.2339 -1.7088 326° Northwest 490 564 29,000 769 Climbing FlightAware ADS-B
Wed 10:58:15 AM 53.3178 -1.8060 325° Northwest 498 573 29,400 568 Climbing FlightAware ADS-B
Wed 10:59:05 AM 53.4125 -1.9146 326° Northwest 498 573 29,900 1,259 Climbing FlightAware ADS-B
Wed 10:59:36 AM 53.4700 -1.9826 325° Northwest 487 560 31,100 1,247 Climbing FlightAware ADS-B
Wed 11:00:22 AM 53.5455 -2.0982 318° Northwest 479 551 31,500 333 Climbing FlightAware ADS-B
Wed 11:00:30 AM 53.5550 -2.1237 302° West 479 551 31,400 286 Descending FlightAware ADS-B
Wed 11:01:04 AM 53.5895 -2.2372 297° West 479 551 31,700 414 Climbing FlightAware ADS-B
Wed 11:01:57 AM 53.6300 -2.4150 291° West 479 551 32,000 196 Climbing FlightAware ADS-B
Wed 11:02:36 AM 53.6630 -2.5470 293° West 480 552 32,000  Level FlightAware ADS-B
Wed 11:03:19 AM 53.7030 -2.6960 294° West 480 552 32,000  Level FlightAware ADS-B
Wed 11:04:03 AM 53.7430 -2.8460 294° West 482 555 32,000  Level FlightAware ADS-B
Wed 11:04:44 AM 53.7810 -2.9830 295° West 486 559 32,000  Level FlightAware ADS-B
Wed 11:05:20 AM 53.8210 -3.1030 299° West 488 562 32,000  Level FlightAware ADS-B
Wed 11:06:03 AM 53.8690 -3.2500 299° West 487 560 32,000  Level FlightAware ADS-B
Wed 11:06:43 AM 53.9090 -3.3760 298° West 487 560 32,000 75 Level FlightAware ADS-B
Wed 11:07:23 AM 53.9550 -3.5200 299° West 490 564 32,100 675 Climbing FlightAware ADS-B
Wed 11:08:03 AM 53.9980 -3.6540 299° West 490 564 32,900 771 Climbing FlightAware ADS-B
Wed 11:08:33 AM 54.0317 -3.7583 299° West 482 555 33,000 130 Climbing FlightAware UK
Wed 11:08:49 AM 54.0470 -3.8060 299° West 485 558 33,000  Level FlightAware ADS-B
Wed 11:09:33 AM 54.1000 -3.9480 303° West 491 565 33,000  Level FlightAware ADS-B
Wed 11:10:13 AM 54.1620 -4.0670 312° West 495 570 33,000  Level FlightAware ADS-B
Wed 11:10:54 AM 54.2200 -4.1820 311° West 494 568 33,000  Level FlightAware ADS-B
Wed 11:11:37 AM 54.2890 -4.3140 312° West 496 571 33,000  Level FlightAware ADS-B
Wed 11:12:21 AM 54.3550 -4.4380 312° West 499 574 33,000  Level FlightAware ADS-B
Wed 11:12:57 AM 54.4131 -4.5475 312° West 484 557 33,000  Level FlightAware UK
Wed 11:13:02 AM 54.4190 -4.5590 312° West 499 574 33,000  Level FlightAware ADS-B
Wed 11:13:43 AM 54.4830 -4.6810 312° West 501 577 33,000  Level FlightAware ADS-B
Wed 11:14:27 AM 54.5527 -4.8127 312° West 482 555 33,000  Level FlightAware UK
Wed 11:14:31 AM 54.5550 -4.8180 312° West 504 580 33,000  Level FlightAware ADS-B
Wed 11:15:13 AM 54.6240 -4.9480 313° West 504 580 33,000  Level FlightAware ADS-B
Wed 11:15:55 AM 54.6880 -5.0710 312° West 504 580 33,000  Level FlightAware ADS-B
Wed 11:16:33 AM 54.7484 -5.1890 312° West 482 555 33,000  Level FlightAware UK
Wed 11:16:41 AM 54.7580 -5.2090 312° West 506 582 33,000  Level FlightAware ADS-B
Wed 11:17:16 AM 54.8130 -5.3150 312° West 507 583 33,000  Level FlightAware ADS-B
Wed 11:18:01 AM 54.8840 -5.4520 312° West 507 583 33,000  Level FlightAware ADS-B
Wed 11:18:03 AM 54.8882 -5.4613 312° West 482 555 33,000  Level FlightAware UK
Wed 11:18:33 AM 54.9348 -5.5527 312° West 482 555 33,000  Level FlightAware UK
Wed 11:18:41 AM 54.9460 -5.5740 312° West 506 582 33,000  Level FlightAware ADS-B
Wed 11:19:26 AM 55.0150 -5.7110 311° West 500 575 33,000  Level FlightAware ADS-B
Wed 11:20:03 AM 55.0737 -5.8271 311° West 482 555 33,000  Level FlightAware UK
Wed 11:20:06 AM 55.0760 -5.8320 311° West 500 575 33,000  Level FlightAware ADS-B
Wed 11:20:31 AM 55.1150 -5.9090 312° West 500 575 33,000 -105 Level FlightAware ADS-B
Wed 11:21:03 AM 55.1657 -6.0111 312° West 478 550 32,900  Descending FlightAware UK
Wed 11:21:17 AM 55.1850 -6.0500 312° West 501 577 33,000 113 Climbing FlightAware ADS-B
Wed 11:21:56 AM 55.2460 -6.1720 311° West 502 578 33,000 -73 Level FlightAware ADS-B
Wed 11:22:39 AM 55.3128 -6.3072 311° West 480 552 32,900  Descending FlightAware UK
Wed 11:22:41 AM 55.3140 -6.3100 311° West 501 577 33,000 115 Climbing FlightAware ADS-B
Wed 11:23:31 AM 55.3910 -6.4680 311° West 501 577 33,000 -68 Level FlightAware ADS-B
Wed 11:24:09 AM 55.4502 -6.5880 311° West 480 552 32,900  Descending FlightAware UK
Wed 11:24:11 AM 55.4520 -6.5910 311° West 502 578 33,000 143 Climbing FlightAware ADS-B
Wed 11:24:51 AM 55.5130 -6.7180 310° West 505 581 33,000  Level FlightAware ADS-B
Wed 11:25:36 AM 55.5820 -6.8600 310° West 507 583 33,000 -125 Level FlightAware ADS-B
Wed 11:25:39 AM 55.5876 -6.8715 310° West 480 552 32,900 -182 Descending FlightAware UK
Wed 11:26:09 AM 55.6334 -6.9673 310° West 480 552 32,900 143 Level FlightAware UK
Wed 11:26:21 AM 55.6500 -7.0030 310° West 508 585 33,000 115 Climbing FlightAware ADS-B
Wed 11:27:01 AM 55.7130 -7.1330 311° West 511 588 33,000 -77 Level FlightAware ADS-B
Wed 11:27:39 AM 55.7716 -7.2571 311° West 482 555 32,900  Descending FlightAware UK
Wed 11:27:42 AM 55.7760 -7.2660 311° West 511 588 33,000 140 Climbing FlightAware ADS-B
Wed 11:28:22 AM 55.8360 -7.3940 310° West 511 588 33,000  Level FlightAware ADS-B
Wed 11:29:07 AM 55.9060 -7.5430 310° West 512 589 33,000  Level FlightAware ADS-B
Wed 11:29:44 AM 55.9639 -7.6664 310° West 480 552 33,000  Level FlightAware UK
Wed 11:29:48 AM 55.9670 -7.6730 310° West 514 592 33,000  Level FlightAware ADS-B
Wed 11:30:28 AM 56.0290 -7.8070 310° West 514 592 33,000  Level FlightAware ADS-B
Wed 11:31:13 AM 56.0960 -7.9510 310° West 515 593 33,000 -130 Level FlightAware ADS-B
Wed 11:31:14 AM 56.1016 -7.9636 310° West 482 555 32,900  Descending FlightAware UK
Wed 11:31:44 AM 56.1474 -8.0634 310° West 480 552 33,000 136 Climbing FlightAware UK
Wed 11:31:58 AM 56.1630 -8.0990 310° West 515 593 33,000  Level FlightAware ADS-B
Wed 11:32:29 AM 56.2090 -8.1970 310° West 516 594 33,000  Level FlightAware ADS-B
Wed 11:33:13 AM 56.2800 -8.3550 310° West 516 594 33,000  Level FlightAware ADS-B
Wed 11:33:14 AM 56.2843 -8.3639 310° West 480 552 33,000  Level FlightAware UK
Wed 11:33:44 AM 56.3297 -8.4649 310° West 480 552 33,000  Level FlightAware UK
Wed 11:33:53 AM 56.3400 -8.4870 310° West 518 596 33,000  Level FlightAware ADS-B
Wed 11:34:33 AM 56.4030 -8.6270 309° West 519 597 33,000  Level FlightAware ADS-B
Wed 11:35:14 AM 56.4667 -8.7702 309° West 480 552 33,000  Level FlightAware UK
Wed 11:35:18 AM 56.4690 -8.7770 309° West 521 600 33,000 -167 Level FlightAware ADS-B
Wed 11:35:50 AM 56.5210 -8.8929 309° West 480 552 32,900  Descending FlightAware UK
Wed 11:35:58 AM 56.5310 -8.9150 309° West 521 600 33,000 -113 Climbing FlightAware ADS-B
Wed 11:36:43 AM 56.6000 -9.0720 309° West 523 602 32,800 -375 Descending FlightAware ADS-B
Wed 11:37:18 AM 56.6530 -9.1930 309° West 523 602 32,500 -468 Descending FlightAware ADS-B
Wed 11:38:00 AM 56.7090 -9.3220 308° West 519 597 32,200 -357 Descending FlightAware ADS-B
Wed 11:38:42 AM 56.7760 -9.4760 308° West 522 601 32,000 -146 Descending FlightAware ADS-B
Wed 11:39:22 AM 56.8370 -9.6160 309° West 522 601 32,000  Level FlightAware ADS-B
Wed 11:40:07 AM 56.9020 -9.7700 308° West 521 600 32,000  Level FlightAware ADS-B
Wed 11:40:47 AM 56.9630 -9.9120 308° West 521 600 32,000  Level FlightAware ADS-B
Wed 11:41:27 AM 57.0140 -10.0570 303° West 515 593 32,000  Level FlightAware ADS-B
Wed 11:42:07 AM 57.0550 -10.2170 295° West 514 592 32,000  Level FlightAware ADS-B
Wed 11:42:42 AM 57.0890 -10.3560 294° West 515 593 32,000  Level FlightAware ADS-B
Wed 11:43:23 AM 57.1290 -10.5180 295° West 519 597 32,000  Level FlightAware ADS-B
Wed 11:44:07 AM 57.1710 -10.6860 295° West 520 598 32,000  Level FlightAware ADS-B
Wed 11:44:42 AM 57.2070 -10.8350 294° West 520 598 32,000  Level FlightAware ADS-B
Wed 11:45:27 AM 57.2520 -11.0210 294° West 522 601 32,000  Level FlightAware ADS-B
Wed 11:46:07 AM 57.2910 -11.1810 294° West 521 600 32,000  Level FlightAware ADS-B
Wed 11:47:20 AM 57.3530 -11.4490 293° West 523 602 32,000  Level FlightAware ADS-B
Wed 11:47:56 AM 57.3820 -11.5750 293° West 523 602 32,000  Level FlightAware ADS-B
Wed 11:48:44 AM 57.4210 -11.7440 293° West 523 602 32,000  Level FlightAware ADS-B
Wed 11:49:21 AM 57.4500 -11.8740 293° West 523 602 32,000  Level FlightAware ADS-B
Wed 11:49:59 AM 57.4810 -12.0080 293° West 523 602 32,000  Level FlightAware ADS-B
Wed 11:50:35 AM 57.5100 -12.1350 293° West 523 602 32,000  Level FlightAware ADS-B
Wed 11:51:21 AM 57.5470 -12.2970 293° West 523 602 32,000  Level FlightAware ADS-B
Wed 11:52:09 AM 57.5850 -12.4660 293° West 523 602 32,000  Level FlightAware ADS-B
Wed 11:52:46 AM 57.6150 -12.5970 293° West 523 602 32,000  Level FlightAware ADS-B
Wed 11:53:46 AM 57.6630 -12.8090 293° West 523 602 32,000  Level FlightAware ADS-B
Wed 11:54:22 AM 57.6920 -12.9370 293° West 523 602 32,000  Level FlightAware ADS-B
Wed 11:55:38 AM 57.7530 -13.2060 293° West 523 602 32,000  Level FlightAware ADS-B
Wed 11:56:14 AM 57.7820 -13.3340 293° West 523 602 32,000  Level FlightAware ADS-B
Wed 11:58:00 AM 57.8352 -13.7329 284° West  Level Estimated
Wed 11:59:00 AM 57.8648 -13.9592 284° West  Level Estimated
Wed 12:00:00 PM 57.8940 -14.1858 284° West  Level Estimated
Wed 12:01:00 PM 57.9448 -14.4186 292° West  Level FlightAware Approximate
Wed 12:02:00 PM 57.9952 -14.6521 292° West  Level FlightAware Approximate
Wed 12:03:00 PM 58.0451 -14.8863 292° West  Level FlightAware Approximate
Wed 12:04:00 PM 58.0947 -15.1211 292° West  Level FlightAware Approximate
Wed 12:05:00 PM 58.1438 -15.3565 292° West  Level FlightAware Approximate
Wed 12:06:00 PM 58.1924 -15.5926 291° West  Level FlightAware Approximate
Wed 12:07:00 PM 58.2407 -15.8294 291° West  Level FlightAware Approximate
Wed 12:08:00 PM 58.2885 -16.0667 291° West  Level FlightAware Approximate
Wed 12:09:00 PM 58.3358 -16.3048 291° West  Level FlightAware Approximate
Wed 12:10:00 PM 58.3827 -16.5434 291° West  Level FlightAware Approximate
Wed 12:11:00 PM 58.4292 -16.7827 290° West  Level FlightAware Approximate
Wed 12:12:00 PM 58.4752 -17.0226 290° West  Level FlightAware Approximate
Wed 12:13:00 PM 58.5208 -17.2632 290° West  Level FlightAware Approximate
Wed 12:14:00 PM 58.5659 -17.5044 290° West  Level FlightAware Approximate
Wed 12:15:00 PM 58.6105 -17.7461 290° West  Level FlightAware Approximate
Wed 12:16:00 PM 58.6547 -17.9886 289° West  Level FlightAware Approximate
Wed 12:17:00 PM 58.6985 -18.2316 289° West  Level FlightAware Approximate
Wed 12:18:00 PM 58.7418 -18.4752 289° West  Level FlightAware Approximate
Wed 12:19:00 PM 58.7846 -18.7194 289° West  Level FlightAware Approximate
Wed 12:20:00 PM 58.8270 -18.9642 289° West  Level FlightAware Approximate
Wed 12:20:18 PM 59.0000 -20.0000 296° West 509 586 32,000  Level ETMS Enhanced Traffic Management System
Wed 12:21:00 PM 58.8684 -19.2071 288° West  Level FlightAware Approximate
Wed 12:22:00 PM 58.9095 -19.4504 288° West  Level FlightAware Approximate
Wed 12:23:00 PM 58.9500 -19.6944 288° West  Level FlightAware Approximate
Wed 12:24:00 PM 58.9901 -19.9389 288° West  Level FlightAware Approximate
Wed 12:25:00 PM 59.0439 -20.1747 296° West  Level FlightAware Approximate
Wed 12:26:00 PM 59.3648 -21.4969 295° West 509 586 32,000  Level FlightAware Transoceanic
Wed 12:27:00 PM 59.4240 -21.7495 295° West 509 586 32,000  Level FlightAware Transoceanic
Wed 12:28:00 PM 59.4826 -22.0030 294° West 509 586 32,000  Level FlightAware Transoceanic
Wed 12:29:00 PM 59.5407 -22.2573 294° West 509 586 32,000  Level FlightAware Transoceanic
Wed 12:30:00 PM 59.5984 -22.5125 294° West 509 586 32,000  Level FlightAware Transoceanic
Wed 12:31:00 PM 59.6555 -22.7686 294° West 509 586 32,000  Level FlightAware Transoceanic
Wed 12:32:00 PM 59.7122 -23.0256 293° West 509 586 32,000  Level FlightAware Transoceanic
Wed 12:33:00 PM 59.7683 -23.2834 293° West 509 586 32,000  Level FlightAware Transoceanic
Wed 12:34:00 PM 59.8239 -23.5421 293° West 509 586 32,000  Level FlightAware Transoceanic
Wed 12:35:00 PM 59.8791 -23.8017 293° West 509 586 32,000  Level FlightAware Transoceanic
Wed 12:36:00 PM 59.9337 -24.0621 293° West 509 586 32,000  Level FlightAware Transoceanic
Wed 12:37:00 PM 59.9878 -24.3234 292° West 509 586 32,000  Level FlightAware Transoceanic
Wed 12:38:00 PM 60.0414 -24.5855 292° West 509 586 32,000  Level FlightAware Transoceanic
Wed 12:39:00 PM 60.0944 -24.8484 292° West 509 586 32,000  Level FlightAware Transoceanic
Wed 12:40:00 PM 60.1469 -25.1123 292° West 509 586 32,000  Level FlightAware Transoceanic
Wed 12:41:00 PM 60.1990 -25.3769 291° West 509 586 32,000  Level FlightAware Transoceanic
Wed 12:41:57 PM 60.2440 -25.6070 291° West 509 586 32,000  Level FlightAware ADS-B
Wed 12:42:00 PM 60.2504 -25.6424 291° West 509 586 32,000  Level FlightAware Transoceanic
Wed 12:42:46 PM 60.2860 -25.8270 291° West 509 586 32,000  Level FlightAware ADS-B
Wed 12:43:28 PM 60.3170 -25.9910 291° West 509 586 32,000  Level FlightAware ADS-B
Wed 12:44:05 PM 60.3440 -26.1300 291° West 509 586 32,000  Level FlightAware ADS-B
Wed 12:44:41 PM 60.3690 -26.2660 290° West 509 586 32,000  Level FlightAware ADS-B
Wed 12:45:30 PM 60.4050 -26.4520 291° West 509 586 32,000  Level FlightAware ADS-B
Wed 12:46:06 PM 60.4300 -26.5880 290° West 509 586 32,000  Level FlightAware ADS-B
Wed 12:46:45 PM 60.4580 -26.7360 291° West 509 586 32,000  Level FlightAware ADS-B
Wed 12:47:33 PM 60.4930 -26.9180 291° West 509 586 32,000  Level FlightAware ADS-B
Wed 12:48:10 PM 60.5190 -27.0580 291° West 509 586 32,000  Level FlightAware ADS-B
Wed 12:48:59 PM 60.5540 -27.2440 291° West 509 586 32,000  Level FlightAware ADS-B
Wed 12:49:33 PM 60.5790 -27.3740 291° West 509 586 32,000  Level FlightAware ADS-B
Wed 12:50:09 PM 60.6040 -27.5110 290° West 509 586 32,000  Level FlightAware ADS-B
Wed 12:50:59 PM 60.6400 -27.7010 291° West 509 586 32,000  Level FlightAware ADS-B
Wed 12:51:33 PM 60.6650 -27.8310 291° West 509 586 32,000  Level FlightAware ADS-B
Wed 12:52:11 PM 60.6920 -27.9760 291° West 509 586 32,000  Level FlightAware ADS-B
Wed 12:52:48 PM 60.7180 -28.1170 291° West 509 586 32,000 48 Level FlightAware ADS-B
Wed 12:55:00 PM 60.8063 -28.6847 288° West  Level FlightAware Approximate
Wed 12:56:00 PM 60.8457 -28.9438 287° West  Level FlightAware Approximate
Wed 12:57:00 PM 60.8845 -29.2035 287° West  Level FlightAware Approximate
Wed 12:58:00 PM 60.9229 -29.4638 287° West  Level FlightAware Approximate
Wed 12:59:00 PM 60.9607 -29.7248 287° West  Level FlightAware Approximate
Wed 01:00:00 PM 60.9981 -29.9863 287° West  Level FlightAware Approximate
Wed 01:01:00 PM 61.0576 -30.2299 297° West  Level FlightAware Approximate
Wed 01:02:00 PM 61.1178 -30.4730 297° West  Level FlightAware Approximate
Wed 01:03:00 PM 61.1776 -30.7170 297° West  Level FlightAware Approximate
Wed 01:04:00 PM 61.2369 -30.9619 297° West  Level FlightAware Approximate
Wed 01:05:00 PM 61.2958 -31.2077 297° West  Level FlightAware Approximate
Wed 01:06:00 PM 61.3543 -31.4545 296° West  Level FlightAware Approximate
Wed 01:07:00 PM 61.4123 -31.7021 296° West  Level FlightAware Approximate
Wed 01:08:00 PM 61.4698 -31.9507 296° West  Level FlightAware Approximate
Wed 01:09:00 PM 61.5269 -32.2002 296° West  Level FlightAware Approximate
Wed 01:10:00 PM 61.5835 -32.4506 296° West  Level FlightAware Approximate
Wed 01:11:00 PM 61.6397 -32.7020 295° West  Level FlightAware Approximate
Wed 01:12:00 PM 61.6954 -32.9542 295° West  Level FlightAware Approximate
Wed 01:13:00 PM 61.7507 -33.2074 295° West  Level FlightAware Approximate
Wed 01:14:00 PM 61.8055 -33.4614 295° West  Level FlightAware Approximate
Wed 01:15:00 PM 61.8598 -33.7164 294° West  Level FlightAware Approximate
Wed 01:16:00 PM 61.9136 -33.9722 294° West  Level FlightAware Approximate
Wed 01:17:00 PM 61.9670 -34.2290 294° West  Level FlightAware Approximate
Wed 01:18:00 PM 62.0198 -34.4867 294° West  Level FlightAware Approximate
Wed 01:19:00 PM 62.0722 -34.7452 293° West  Level FlightAware Approximate
Wed 01:20:00 PM 62.1241 -35.0047 293° West  Level FlightAware Approximate
Wed 01:21:00 PM 62.1756 -35.2650 293° West  Level FlightAware Approximate
Wed 01:22:00 PM 62.2265 -35.5262 293° West  Level FlightAware Approximate
Wed 01:23:00 PM 62.2770 -35.7883 293° West  Level FlightAware Approximate
Wed 01:24:00 PM 62.3269 -36.0512 292° West  Level FlightAware Approximate
Wed 01:25:00 PM 62.3764 -36.3151 292° West  Level FlightAware Approximate
Wed 01:26:00 PM 62.4253 -36.5798 292° West  Level FlightAware Approximate
Wed 01:27:00 PM 62.4738 -36.8453 292° West  Level FlightAware Approximate
Wed 01:28:00 PM 62.5217 -37.1118 291° West  Level FlightAware Approximate
Wed 01:29:00 PM 62.5691 -37.3790 291° West  Level FlightAware Approximate
Wed 01:30:00 PM 62.6161 -37.6472 291° West  Level FlightAware Approximate
Wed 01:31:00 PM 62.6625 -37.9161 291° West  Level FlightAware Approximate
Wed 01:32:00 PM 62.7084 -38.1859 290° West  Level FlightAware Approximate
Wed 01:33:00 PM 62.7537 -38.4566 290° West  Level FlightAware Approximate
Wed 01:33:49 PM 62.9333 -39.3333 286° West 510 587 34,000  Level Gander Center
Wed 01:34:00 PM 62.7986 -38.7281 290° West  Level FlightAware Approximate
Wed 01:35:00 PM 62.8429 -39.0004 290° West  Level FlightAware Approximate
Wed 01:35:00 PM 62.9000 -39.6699 258° West  Level Estimated
Wed 01:36:00 PM 62.8867 -39.2735 289° West  Level FlightAware Approximate
Wed 01:37:00 PM 62.9301 -39.5484 289° West  Level FlightAware Approximate
Wed 01:38:00 PM 62.9730 -39.8241 289° West  Level FlightAware Approximate
Wed 01:38:57 PM 63.1333 -40.8167 256° West 490 564 34,000  Level Gander Center
Wed 01:39:00 PM 63.0134 -40.1020 286° West  Level FlightAware Approximate
Wed 01:39:57 PM 63.1667 -41.1333 283° West 500 575 34,000  Level Gander Center
Wed 01:41:00 PM 63.1886 -41.4378 279° West  Level FlightAware Approximate
Wed 01:42:00 PM 62.6867 -41.6445 258° West  Level Estimated
Wed 01:43:00 PM 62.6540 -41.9242 256° West  Level Estimated
Wed 01:44:00 PM 62.6207 -42.2033 256° West  Level Estimated
Wed 01:48:00 PM 63.4213 -43.4375 286° West  Level FlightAware Approximate
Wed 01:49:00 PM 63.4535 -43.7250 284° West  Level FlightAware Approximate
Wed 01:50:00 PM 63.4852 -44.0131 284° West  Level FlightAware Approximate
Wed 01:51:00 PM 63.5162 -44.3018 284° West  Level FlightAware Approximate
Wed 01:52:00 PM 63.5467 -44.5912 283° West  Level FlightAware Approximate
Wed 01:52:14 PM 63.5833 -44.6000 282° West 480 552 34,000  Level Gander Center
Wed 01:53:00 PM 63.5765 -44.8811 283° West  Level FlightAware Approximate
Wed 01:53:14 PM 63.6167 -44.9000 284° West 470 541 34,000  Level Gander Center
Wed 01:54:00 PM 63.6058 -45.1717 283° West  Level FlightAware Approximate
Wed 01:54:14 PM 63.6333 -45.1833 278° West 480 552 34,000  Level Gander Center
Wed 01:55:00 PM 63.6345 -45.4629 283° West  Level FlightAware Approximate
Wed 01:55:14 PM 63.6667 -45.4667 285° West 470 541 34,000  Level Gander Center
Wed 01:56:00 PM 63.6626 -45.7546 282° West  Level FlightAware Approximate
Wed 01:56:57 PM 63.7167 -45.9833 283° West 480 552 34,000  Level Gander Center
Wed 01:57:00 PM 63.6902 -46.0470 282° West  Level FlightAware Approximate
Wed 01:57:57 PM 63.7333 -46.2667 278° West 480 552 34,000  Level Gander Center
Wed 01:58:57 PM 63.7667 -46.5667 284° West 480 552 34,000  Level Gander Center
Wed 02:00:00 PM 63.7915 -46.8796 280° West  Level FlightAware Approximate
Wed 02:03:24 PM 63.8667 -47.8500 278° West 470 541 34,000  Level Gander Center
Wed 02:04:24 PM 63.9000 -48.1000 287° West 470 541 34,000  Level Gander Center
Wed 02:05:24 PM 63.9167 -48.4000 277° West 470 541 34,000  Level Gander Center
Wed 02:07:00 PM 63.9395 -48.9788 280° West  Level FlightAware Approximate
Wed 02:08:00 PM 63.9581 -49.2805 278° West  Level FlightAware Approximate
Wed 02:11:08 PM 64.0060 -50.1630 277° West 456 525 34,000  Level FlightAware ADS-B
Wed 02:11:48 PM 64.0120 -50.3510 274° West 456 525 34,000  Level FlightAware ADS-B
Wed 02:12:32 PM 64.0180 -50.5680 274° West 458 527 34,000  Level FlightAware ADS-B
Wed 02:13:12 PM 64.0240 -50.7610 274° West 458 527 34,000  Level FlightAware ADS-B
Wed 02:13:55 PM 64.0300 -50.9660 274° West 459 528 34,000  Level FlightAware ADS-B
Wed 02:14:31 PM 64.0350 -51.1410 274° West 459 528 34,000  Level FlightAware ADS-B
Wed 02:15:10 PM 64.0400 -51.3270 274° West 459 528 34,000  Level FlightAware ADS-B
Wed 02:15:56 PM 64.0450 -51.5530 273° West 459 528 34,000  Level FlightAware ADS-B
Wed 02:16:28 PM 64.0490 -51.7080 273° West 460 529 34,000  Level FlightAware ADS-B
Wed 02:17:10 PM 64.0530 -51.9100 273° West 461 531 34,000  Level FlightAware ADS-B
Wed 02:17:54 PM 64.0580 -52.1220 273° West 460 529 34,000  Level FlightAware ADS-B
Wed 02:18:36 PM 64.0610 -52.3270 272° West 460 529 34,000  Level FlightAware ADS-B
Wed 02:19:19 PM 64.0650 -52.5330 273° West 459 528 34,000  Level FlightAware ADS-B
Wed 02:19:55 PM 64.0680 -52.7050 272° West 459 528 34,000  Level FlightAware ADS-B
Wed 02:20:28 PM 64.0700 -52.8650 272° West 458 527 34,000  Level FlightAware ADS-B
Wed 02:21:28 PM 64.0730 -53.1350 272° West 460 529 34,000  Level FlightAware ADS-B
Wed 02:22:02 PM 64.0760 -53.3220 272° West 461 531 34,000  Level FlightAware ADS-B
Wed 02:22:45 PM 64.0790 -53.5290 272° West 460 529 34,000  Level FlightAware ADS-B
Wed 02:23:31 PM 64.0800 -53.7020 271° West 460 529 34,000  Level FlightAware ADS-B
Wed 02:24:07 PM 64.0810 -53.8510 271° West 460 529 34,000  Level FlightAware ADS-B
Wed 02:24:55 PM 64.0830 -54.0500 271° West 460 529 34,000  Level FlightAware ADS-B
Wed 02:25:31 PM 64.0840 -54.1990 271° West 460 529 34,000  Level FlightAware ADS-B
Wed 02:26:07 PM 64.0850 -54.3480 271° West 460 529 34,000  Level FlightAware ADS-B
Wed 02:26:55 PM 64.0860 -54.5470 271° West 460 529 34,000  Level FlightAware ADS-B
Wed 02:27:32 PM 64.0870 -54.7000 271° West 460 529 34,000  Level FlightAware ADS-B
Wed 02:28:06 PM 64.0880 -54.8400 271° West 460 529 34,000  Level FlightAware ADS-B
Wed 02:28:54 PM 64.0900 -55.0390 271° West 460 529 34,000  Level FlightAware ADS-B
Wed 02:29:30 PM 64.0910 -55.1880 271° West 460 529 34,000  Level FlightAware ADS-B
Wed 02:30:21 PM 64.0930 -55.3990 271° West 460 529 34,000  Level FlightAware ADS-B
Wed 02:30:55 PM 64.0940 -55.5400 271° West 460 529 34,000  Level FlightAware ADS-B
Wed 02:31:43 PM 64.0950 -55.7390 271° West 460 529 34,000  Level FlightAware ADS-B
Wed 02:32:19 PM 64.0960 -55.8880 271° West 460 529 34,000  Level FlightAware ADS-B
Wed 02:33:24 PM 64.1000 -56.5500 271° West 460 529 34,000  Level Gander Center
Wed 02:34:24 PM 64.1000 -56.8500 270° West 470 541 34,000  Level Gander Center
Wed 02:35:24 PM 64.0833 -57.1167 262° West 460 529 34,000  Level Gander Center
Wed 02:36:24 PM 64.0667 -57.4333 263° West 460 529 34,000  Level Gander Center
Wed 02:37:24 PM 64.0333 -57.7000 254° West 460 529 34,000  Level Gander Center
Wed 02:38:24 PM 64.0167 -58.0000 263° West 460 529 34,000  Level Gander Center
Wed 02:39:24 PM 63.9833 -58.2667 254° West 460 529 34,000  Level Gander Center
Wed 02:40:24 PM 63.9500 -58.5667 256° West 460 529 34,000  Level Gander Center
Wed 02:41:24 PM 63.9333 -58.8333 262° West 470 541 34,000  Level Gander Center
Wed 02:42:24 PM 63.9000 -59.1333 256° West 470 541 34,000  Level Gander Center
Wed 02:43:24 PM 63.8500 -59.4000 247° West 470 541 34,000  Level Gander Center
Wed 02:44:24 PM 63.8167 -59.7000 256° West 470 541 34,000  Level Gander Center
Wed 02:45:24 PM 63.8000 -59.9667 262° West 470 541 34,000  Level Gander Center
Wed 02:46:24 PM 63.7667 -60.2667 256° West 470 541 34,000  Level Gander Center
Wed 02:47:24 PM 63.7333 -60.5333 254° West 470 541 34,000  Level Gander Center
Wed 02:48:24 PM 63.7000 -60.8000 254° West 470 541 34,000  Level Gander Center
Wed 02:49:24 PM 63.6667 -61.1000 256° West 470 541 34,000  Level Gander Center
Wed 02:50:24 PM 63.6333 -61.4000 256° West 470 541 34,000  Level Gander Center
Wed 02:51:24 PM 63.6000 -61.6500 253° West 470 541 34,000  Level Gander Center
Wed 02:52:24 PM 63.5667 -61.9500 256° West 470 541 34,000  Level Gander Center
Wed 02:53:24 PM 63.5333 -62.2500 256° West 470 541 34,000  Level Gander Center
Wed 02:54:24 PM 63.5000 -62.5000 253° West 470 541 34,000  Level Gander Center
Wed 02:55:24 PM 63.4667 -62.8000 256° West 470 541 34,000  Level Gander Center
Wed 02:56:24 PM 63.4167 -63.1000 250° West 470 541 34,000  Level Gander Center
Wed 02:57:24 PM 63.3833 -63.3500 254° West 470 541 34,000  Level Gander Center
Wed 02:58:24 PM 63.3500 -63.6500 256° West 480 552 34,000  Level Gander Center
Wed 02:59:24 PM 63.3000 -63.9333 249° West 480 552 34,000  Level Gander Center
Wed 03:00:24 PM 63.2500 -64.1833 246° West 480 552 34,000  Level Gander Center
Wed 03:01:24 PM 63.2167 -64.4833 256° West 480 552 34,000  Level Gander Center
Wed 03:02:24 PM 63.1833 -64.7333 254° West 480 552 34,000  Level Gander Center
Wed 03:03:24 PM 63.1333 -65.0167 249° West 480 552 34,000  Level Gander Center
Wed 03:04:24 PM 63.1000 -65.3000 256° West 480 552 34,000  Level Gander Center
Wed 03:05:24 PM 63.0500 -65.6000 250° West 480 552 34,000  Level Gander Center
Wed 03:06:24 PM 63.0167 -65.8833 256° West 480 552 34,000  Level Gander Center
Wed 03:07:24 PM 62.9500 -66.1333 240° Southwest 480 552 34,000  Level Gander Center
Wed 03:08:24 PM 62.9167 -66.4167 256° West 490 564 34,000  Level Gander Center
Wed 03:09:16 PM 62.8833 -66.5667 244° Southwest 490 564 34,000  Level Montreal Center
Wed 03:10:16 PM 62.8333 -66.8500 249° West 480 552 34,000  Level Montreal Center
Wed 03:10:48 PM 62.8000 -67.0833 253° West 490 564 34,000  Level Gander Center
Wed 03:11:48 PM 62.7333 -67.3333 240° Southwest 490 564 34,000  Level Gander Center
Wed 03:12:48 PM 62.6667 -67.5667 238° Southwest 490 564 34,000  Level Gander Center
Wed 03:13:24 PM 62.6333 -67.7000 242° Southwest 490 564 34,000  Level Gander Center
Wed 03:14:24 PM 62.5500 -67.9833 238° Southwest 490 564 34,000  Level Gander Center
Wed 03:15:24 PM 62.4833 -68.2167 238° Southwest 490 564 34,000  Level Gander Center
Wed 03:16:24 PM 62.4167 -68.4833 242° Southwest 490 564 34,000  Level Gander Center
Wed 03:17:24 PM 62.3333 -68.7167 232° Southwest 490 564 34,000  Level Gander Center
Wed 03:18:24 PM 62.2500 -68.9500 233° Southwest 490 564 34,000  Level Gander Center
Wed 03:19:24 PM 62.2000 -69.1833 245° Southwest 490 564 34,000  Level Gander Center
Wed 03:20:24 PM 62.1167 -69.4500 236° Southwest 490 564 34,000  Level Gander Center
Wed 03:21:23 PM 62.0000 -69.4667 184° South 490 564 34,000  Level Edmonton Center
Wed 03:22:23 PM 61.9167 -69.6833 231° Southwest 490 564 34,000  Level Edmonton Center
Wed 03:23:23 PM 61.8333 -69.9500 237° Southwest 490 564 34,000  Level Edmonton Center
Wed 03:24:24 PM 61.8000 -70.4000 261° West 490 564 34,000  Level Gander Center
Wed 03:25:23 PM 61.6833 -70.4333 188° South 490 564 34,000  Level Edmonton Center
Wed 03:26:23 PM 61.6167 -70.6500 237° Southwest 490 564 34,000  Level Edmonton Center
Wed 03:27:24 PM 61.5833 -71.1000 261° West 500 575 34,000  Level Gander Center
Wed 03:28:23 PM 61.4667 -71.1500 192° South 500 575 34,000  Level Edmonton Center
Wed 03:30:24 PM 61.3333 -71.8000 247° West 500 575 34,000  Level Gander Center
Wed 03:31:15 PM 61.2167 -71.8167 184° South 490 564 34,000  Level Edmonton Center
Wed 03:31:48 PM 61.2333 -72.1500 276° West 500 575 34,000  Level Gander Center
Wed 03:32:48 PM 61.1500 -72.3667 231° Southwest 490 564 34,000  Level Gander Center
Wed 03:33:48 PM 61.0833 -72.6167 241° Southwest 500 575 34,000  Level Gander Center
Wed 03:34:48 PM 61.0000 -72.8333 232° Southwest 500 575 34,000  Level Gander Center
Wed 03:35:48 PM 60.9000 -73.0500 227° Southwest 500 575 34,000  Level Gander Center
Wed 03:36:48 PM 60.8333 -73.3000 241° Southwest 490 564 34,000  Level Gander Center
Wed 03:37:48 PM 60.7500 -73.5000 230° Southwest 500 575 34,000  Level Gander Center
Wed 03:38:48 PM 60.6667 -73.7500 236° Southwest 510 587 34,000  Level Gander Center
Wed 03:39:48 PM 60.5833 -73.9667 232° Southwest 500 575 34,000  Level Gander Center
Wed 03:40:48 PM 60.4833 -74.2333 233° Southwest 520 598 34,000  Level Gander Center
Wed 03:42:15 PM 60.3167 -74.3167 194° South 500 575 34,000  Level Edmonton Center
Wed 03:43:15 PM 60.2500 -74.5333 238° Southwest 500 575 34,000  Level Edmonton Center
Wed 03:44:15 PM 60.1500 -74.7833 231° Southwest 500 575 34,000  Level Edmonton Center
Wed 03:45:15 PM 60.0667 -74.9667 228° Southwest 490 564 34,000  Level Edmonton Center
Wed 03:46:15 PM 60.0000 -75.2000 240° Southwest 490 564 34,000  Level Edmonton Center
Wed 03:47:15 PM 59.9000 -75.4000 225° Southwest 490 564 34,000  Level Edmonton Center
Wed 03:48:15 PM 59.8167 -75.6167 233° Southwest 490 564 34,000  Level Edmonton Center
Wed 03:49:15 PM 59.7333 -75.8167 230° Southwest 490 564 34,000  Level Edmonton Center
Wed 03:50:15 PM 59.6500 -76.0500 235° Southwest 490 564 34,000  Level Edmonton Center
Wed 03:51:15 PM 59.5667 -76.2667 233° Southwest 490 564 34,000  Level Edmonton Center
Wed 03:52:15 PM 59.4833 -76.4500 228° Southwest 480 552 34,000  Level Edmonton Center
Wed 03:53:15 PM 59.4000 -76.6833 235° Southwest 480 552 34,000  Level Edmonton Center
Wed 03:54:15 PM 59.3000 -76.8667 223° Southwest 480 552 34,000  Level Edmonton Center
Wed 03:55:15 PM 59.2333 -77.0667 237° Southwest 480 552 34,000  Level Edmonton Center
Wed 03:56:15 PM 59.1333 -77.2500 223° Southwest 480 552 34,000  Level Edmonton Center
Wed 03:57:15 PM 59.0500 -77.4833 235° Southwest 480 552 34,000  Level Edmonton Center
Wed 03:58:15 PM 58.9667 -77.6667 229° Southwest 480 552 34,000  Level Edmonton Center
Wed 03:59:15 PM 58.8833 -77.8667 231° Southwest 480 552 34,000  Level Edmonton Center
Wed 04:00:15 PM 58.7833 -78.0500 224° Southwest 480 552 34,000  Level Edmonton Center
Wed 04:01:15 PM 58.7167 -78.2500 237° Southwest 480 552 34,000  Level Edmonton Center
Wed 04:02:15 PM 58.6167 -78.4333 224° Southwest 480 552 34,000  Level Edmonton Center
Wed 04:03:15 PM 58.5167 -78.6500 229° Southwest 480 552 34,000  Level Edmonton Center
Wed 04:04:15 PM 58.4333 -78.8333 229° Southwest 480 552 34,000  Level Edmonton Center
Wed 04:05:15 PM 58.3500 -79.0333 232° Southwest 480 552 34,000  Level Edmonton Center
Wed 04:06:15 PM 58.2667 -79.2000 226° Southwest 480 552 34,000  Level Edmonton Center
Wed 04:07:15 PM 58.1667 -79.4167 229° Southwest 480 552 34,000  Level Edmonton Center
Wed 04:08:15 PM 58.0667 -79.5833 221° Southwest 480 552 34,000  Level Edmonton Center
Wed 04:09:15 PM 57.9833 -79.7833 232° Southwest 480 552 34,000  Level Edmonton Center
Wed 04:10:15 PM 57.9000 -79.9667 230° Southwest 480 552 34,000  Level Edmonton Center
Wed 04:11:15 PM 57.8167 -80.1500 230° Southwest 480 552 34,000  Level Edmonton Center
Wed 04:12:15 PM 57.7167 -80.3167 222° Southwest 480 552 34,000  Level Edmonton Center
Wed 04:13:15 PM 57.6333 -80.5167 232° Southwest 470 541 34,000  Level Edmonton Center
Wed 04:14:15 PM 57.5500 -80.6833 227° Southwest 470 541 34,000  Level Edmonton Center
Wed 04:15:15 PM 57.4333 -80.8667 220° Southwest 470 541 34,000  Level Edmonton Center
Wed 04:16:15 PM 57.3500 -81.0500 230° Southwest 470 541 34,000  Level Edmonton Center
Wed 04:17:15 PM 57.2667 -81.2167 227° Southwest 470 541 34,000  Level Edmonton Center
Wed 04:18:15 PM 57.1667 -81.3500 216° Southwest 460 529 34,000  Level Edmonton Center
Wed 04:19:16 PM 57.1000 -81.6333 247° West 460 529 34,000  Level Montreal Center
Wed 04:20:16 PM 57.0000 -81.7667 216° Southwest 460 529 34,000  Level Montreal Center
Wed 04:21:16 PM 56.8833 -81.9167 215° Southwest 460 529 34,000  Level Montreal Center
Wed 04:22:16 PM 56.7833 -82.0500 216° Southwest 460 529 34,000  Level Montreal Center
Wed 04:23:16 PM 56.6833 -82.1833 216° Southwest 460 529 34,000  Level Montreal Center
Wed 04:24:16 PM 56.5833 -82.3500 223° Southwest 470 541 34,000  Level Montreal Center
Wed 04:25:15 PM 56.4333 -82.3500 180° South 470 541 34,000  Level Edmonton Center
Wed 04:26:15 PM 56.3333 -82.4833 216° Southwest 480 552 34,000  Level Edmonton Center
Wed 04:27:15 PM 56.2167 -82.6167 212° Southwest 480 552 34,000  Level Edmonton Center
Wed 04:28:15 PM 56.1167 -82.7667 220° Southwest 470 541 34,000  Level Edmonton Center
Wed 04:29:15 PM 56.0000 -82.9000 213° Southwest 480 552 34,000  Level Edmonton Center
Wed 04:30:15 PM 55.9000 -83.0333 217° Southwest 490 564 34,000  Level Edmonton Center
Wed 04:31:15 PM 55.7833 -83.1667 213° Southwest 480 552 34,000  Level Edmonton Center
Wed 04:32:15 PM 55.6833 -83.3167 220° Southwest 480 552 34,000  Level Edmonton Center
Wed 04:33:15 PM 55.5667 -83.4500 213° Southwest 480 552 34,000  Level Edmonton Center
Wed 04:34:15 PM 55.4500 -83.6167 219° Southwest 480 552 34,000  Level Edmonton Center
Wed 04:35:15 PM 55.3333 -83.7333 210° Southwest 480 552 34,000  Level Edmonton Center
Wed 04:36:15 PM 55.2333 -83.8667 217° Southwest 480 552 34,000  Level Edmonton Center
Wed 04:37:15 PM 55.1333 -84.0000 217° Southwest 480 552 34,000  Level Edmonton Center
Wed 04:38:00 PM 55.0667 -84.1333 229° Southwest 480 552 34,000  Level Winnipeg Center
Wed 04:39:00 PM 54.9667 -84.2667 217° Southwest 490 564 34,000  Level Winnipeg Center
Wed 04:40:00 PM 54.8500 -84.4167 217° Southwest 480 552 34,000  Level Winnipeg Center
Wed 04:41:00 PM 54.7333 -84.5333 210° Southwest 490 564 34,000  Level Winnipeg Center
Wed 04:42:00 PM 54.6167 -84.6667 214° Southwest 490 564 34,000  Level Winnipeg Center
Wed 04:43:00 PM 54.5000 -84.7833 210° Southwest 480 552 34,000  Level Winnipeg Center
Wed 04:44:00 PM 54.4000 -84.9333 221° Southwest 490 564 34,000  Level Winnipeg Center
Wed 04:45:00 PM 54.2833 -85.0500 210° Southwest 480 552 34,000  Level Winnipeg Center
Wed 04:46:00 PM 54.1667 -85.2000 217° Southwest 480 552 34,000  Level Winnipeg Center
Wed 04:47:00 PM 54.0500 -85.3167 210° Southwest 490 564 34,000  Level Winnipeg Center
Wed 04:48:00 PM 53.9500 -85.4333 214° Southwest 480 552 34,000  Level Winnipeg Center
Wed 04:49:00 PM 53.8333 -85.5500 211° Southwest 480 552 34,000  Level Winnipeg Center
Wed 04:50:00 PM 53.7333 -85.7000 222° Southwest 480 552 34,000  Level Winnipeg Center
Wed 04:51:00 PM 53.6167 -85.8167 211° Southwest 480 552 34,000  Level Winnipeg Center
Wed 04:52:00 PM 53.5000 -85.9333 211° Southwest 480 552 34,000  Level Winnipeg Center
Wed 04:53:00 PM 53.4000 -86.0667 219° Southwest 480 552 34,000  Level Winnipeg Center
Wed 04:54:00 PM 53.2833 -86.1833 211° Southwest 470 541 34,000  Level Winnipeg Center
Wed 04:55:00 PM 53.1667 -86.3000 211° Southwest 480 552 34,000  Level Winnipeg Center
Wed 04:56:00 PM 53.0500 -86.4000 207° Southwest 480 552 34,000  Level Winnipeg Center
Wed 04:57:00 PM 52.9500 -86.5167 215° Southwest 480 552 34,000  Level Winnipeg Center
Wed 04:58:00 PM 52.8500 -86.6500 219° Southwest 470 541 34,000  Level Winnipeg Center
Wed 04:59:00 PM 52.7333 -86.7667 211° Southwest 470 541 34,000  Level Winnipeg Center
Wed 05:00:00 PM 52.6167 -86.8833 211° Southwest 470 541 34,000  Level Winnipeg Center
Wed 05:01:00 PM 52.5000 -86.9833 208° Southwest 460 529 34,000  Level Winnipeg Center
Wed 05:02:00 PM 52.4167 -87.0833 216° Southwest 470 541 34,000  Level Winnipeg Center
Wed 05:03:00 PM 52.2833 -87.2333 215° Southwest 460 529 34,000  Level Winnipeg Center
Wed 05:04:00 PM 52.2000 -87.3333 216° Southwest 460 529 34,000  Level Winnipeg Center
Wed 05:05:00 PM 52.0667 -87.4333 205° Southwest 470 541 34,000  Level Winnipeg Center
Wed 05:06:00 PM 51.9667 -87.5500 216° Southwest 460 529 34,000  Level Winnipeg Center
Wed 05:07:00 PM 51.8500 -87.6833 215° Southwest 460 529 34,000  Level Winnipeg Center
Wed 05:08:00 PM 51.7500 -87.7833 212° Southwest 470 541 34,000  Level Winnipeg Center
Wed 05:09:00 PM 51.6333 -87.8833 208° Southwest 470 541 34,000  Level Winnipeg Center
Wed 05:10:00 PM 51.5167 -87.9833 208° Southwest 460 529 34,000  Level Winnipeg Center
Wed 05:11:00 PM 51.4167 -88.1000 216° Southwest 460 529 34,000  Level Winnipeg Center
Wed 05:12:00 PM 51.3000 -88.2167 212° Southwest 460 529 34,000  Level Winnipeg Center
Wed 05:13:00 PM 51.2000 -88.3000 208° Southwest 470 541 34,000  Level Winnipeg Center
Wed 05:14:00 PM 51.0833 -88.4333 216° Southwest 470 541 34,000  Level Winnipeg Center
Wed 05:15:00 PM 50.9667 -88.5333 208° Southwest 460 529 34,000  Level Winnipeg Center
Wed 05:16:00 PM 50.8667 -88.6333 212° Southwest 470 541 34,000 200 Level Winnipeg Center
Wed 05:17:00 PM 50.7500 -88.7500 212° Southwest 460 529 34,400 750 Climbing Winnipeg Center
Wed 05:18:00 PM 50.6500 -88.8500 212° Southwest 480 552 35,500 800 Climbing Winnipeg Center
Wed 05:19:00 PM 50.5167 -88.9500 206° Southwest 480 552 36,000 250 Climbing Winnipeg Center
Wed 05:20:00 PM 50.4000 -89.0500 209° Southwest 480 552 36,000  Level Winnipeg Center
Wed 05:21:00 PM 50.3000 -89.1833 220° Southwest 480 552 36,000  Level Winnipeg Center
Wed 05:22:00 PM 50.1833 -89.2667 205° Southwest 480 552 36,000  Level Winnipeg Center
Wed 05:22:59 PM 50.0833 -89.3667 213° Southwest 480 552 36,000  Level Winnipeg Center
Wed 05:23:59 PM 49.9500 -89.5000 213° Southwest 480 552 36,000  Level Winnipeg Center
Wed 05:24:59 PM 49.8333 -89.5833 205° Southwest 490 564 36,000  Level Winnipeg Center
Wed 05:25:59 PM 49.7333 -89.6833 213° Southwest 490 564 36,000  Level Winnipeg Center
Wed 05:26:59 PM 49.6000 -89.8167 213° Southwest 490 564 36,000  Level Winnipeg Center
Wed 05:27:59 PM 49.4833 -89.9000 205° Southwest 490 564 36,000  Level Winnipeg Center
Wed 05:33:31 PM 48.8360 -90.5300 205° Southwest 497 572 36,000  Level FlightAware ADS-B
Wed 05:34:07 PM 48.7640 -90.5910 209° Southwest 498 573 36,000  Level FlightAware ADS-B
Wed 05:34:52 PM 48.6750 -90.6680 210° Southwest 500 575 36,000  Level FlightAware ADS-B
Wed 05:35:28 PM 48.6040 -90.7280 209° Southwest 500 575 36,000  Level FlightAware ADS-B
Wed 05:36:12 PM 48.5130 -90.8000 208° Southwest 506 582 36,000  Level FlightAware ADS-B
Wed 05:36:53 PM 48.4210 -90.8510 200° South 515 593 36,000  Level FlightAware ADS-B
Wed 05:37:29 PM 48.3390 -90.8870 196° South 515 593 36,000  Level FlightAware ADS-B
Wed 05:38:09 PM 48.2470 -90.9270 196° South 515 593 36,000  Level FlightAware ADS-B
Wed 05:38:49 PM 48.1550 -90.9680 197° South 515 593 36,000  Level FlightAware ADS-B
Wed 05:39:33 PM 48.0540 -91.0130 197° South 514 592 36,000  Level FlightAware ADS-B
Wed 05:40:17 PM 47.9560 -91.0570 197° South 514 592 36,000  Level FlightAware ADS-B
Wed 05:40:59 PM 47.8610 -91.0990 197° South 514 592 36,000  Level FlightAware ADS-B
Wed 05:41:39 PM 47.7690 -91.1400 197° South 514 592 36,000  Level FlightAware ADS-B
Wed 05:42:19 PM 47.6770 -91.1800 196° South 512 589 36,000  Level FlightAware ADS-B
Wed 05:42:55 PM 47.5960 -91.2150 196° South 510 587 36,000  Level FlightAware ADS-B
Wed 05:43:39 PM 47.4970 -91.2590 197° South 507 583 36,000  Level FlightAware ADS-B
Wed 05:44:16 PM 47.4190 -91.2930 196° South 505 581 36,000  Level FlightAware ADS-B
Wed 05:44:56 PM 47.3240 -91.3340 196° South 504 580 36,000  Level FlightAware ADS-B
Wed 05:45:40 PM 47.2260 -91.3760 196° South 504 580 36,000  Level FlightAware ADS-B
Wed 05:46:19 PM 47.1400 -91.4140 197° South 504 580 36,000  Level FlightAware ADS-B
Wed 05:47:02 PM 47.0430 -91.4550 196° South 503 579 36,000  Level FlightAware ADS-B
Wed 05:47:42 PM 46.9540 -91.4930 196° South 502 578 36,000  Level FlightAware ADS-B
Wed 05:48:28 PM 46.8520 -91.5370 196° South 501 577 36,000  Level FlightAware ADS-B
Wed 05:49:08 PM 46.7620 -91.5750 196° South 500 575 36,000  Level FlightAware ADS-B
Wed 05:49:40 PM 46.6910 -91.6050 196° South 500 575 36,000  Level FlightAware ADS-B
Wed 05:50:24 PM 46.5920 -91.6470 196° South 502 578 36,000  Level FlightAware ADS-B
Wed 05:51:08 PM 46.4950 -91.6880 196° South 502 578 36,000  Level FlightAware ADS-B
Wed 05:51:44 PM 46.4150 -91.7220 196° South 502 578 36,000  Level FlightAware ADS-B
Wed 05:52:24 PM 46.3260 -91.7600 196° South 502 578 36,000  Level FlightAware ADS-B
Wed 05:53:06 PM 46.2330 -91.7990 196° South 503 579 36,000  Level FlightAware ADS-B
Wed 05:53:45 PM 46.1470 -91.8350 196° South 502 578 36,000  Level FlightAware ADS-B
Wed 05:54:32 PM 46.0420 -91.8790 196° South 500 575 36,000  Level FlightAware ADS-B
Wed 05:55:12 PM 45.9520 -91.9160 196° South 500 575 36,000  Level FlightAware ADS-B
Wed 05:55:56 PM 45.8550 -91.9560 196° South 499 574 36,000  Level FlightAware ADS-B
Wed 05:56:28 PM 45.7840 -91.9860 196° South 500 575 36,000  Level FlightAware ADS-B
Wed 05:57:12 PM 45.6860 -92.0260 196° South 502 578 36,000  Level FlightAware ADS-B
Wed 05:57:52 PM 45.5960 -92.0630 196° South 502 578 36,000  Level FlightAware ADS-B
Wed 05:58:28 PM 45.5160 -92.0960 196° South 500 575 36,000  Level FlightAware ADS-B
Wed 05:59:08 PM 45.4290 -92.1310 196° South 499 574 36,000  Level FlightAware ADS-B
Wed 05:59:52 PM 45.3310 -92.1710 196° South 496 571 36,000  Level FlightAware ADS-B
Wed 06:00:32 PM 45.2440 -92.2060 196° South 495 570 36,000  Level FlightAware ADS-B
Wed 06:01:12 PM 45.1540 -92.2430 196° South 495 570 36,000  Level FlightAware ADS-B
Wed 06:01:58 PM 45.0530 -92.2840 196° South 496 571 36,000  Level FlightAware ADS-B
Wed 06:02:41 PM 44.9590 -92.3210 196° South 497 572 36,000  Level FlightAware ADS-B
Wed 06:03:23 PM 44.8650 -92.3590 196° South 497 572 36,000  Level FlightAware ADS-B
Wed 06:04:03 PM 44.7780 -92.3940 196° South 496 571 36,000  Level FlightAware ADS-B
Wed 06:04:47 PM 44.6810 -92.4320 196° South 496 571 36,000  Level FlightAware ADS-B
Wed 06:05:27 PM 44.5920 -92.4670 196° South 497 572 36,000  Level FlightAware ADS-B
Wed 06:06:11 PM 44.4920 -92.5060 196° South 496 571 36,000  Level FlightAware ADS-B
Wed 06:06:54 PM 44.4010 -92.5430 196° South 496 571 36,000  Level FlightAware ADS-B
Wed 06:07:33 PM 44.3120 -92.5770 195° South 497 572 36,000  Level FlightAware ADS-B
Wed 06:08:13 PM 44.2230 -92.6120 196° South 497 572 36,000  Level FlightAware ADS-B
Wed 06:08:59 PM 44.1220 -92.6510 195° South 500 575 36,000  Level FlightAware ADS-B
Wed 06:09:39 PM 44.0330 -92.6860 196° South 500 575 36,000  Level FlightAware ADS-B
Wed 06:10:23 PM 43.9340 -92.7240 195° South 502 578 36,000  Level FlightAware ADS-B
Wed 06:10:59 PM 43.8550 -92.7550 196° South 504 580 36,000  Level FlightAware ADS-B
Wed 06:11:46 PM 43.7480 -92.7960 195° South 505 581 36,000  Level FlightAware ADS-B
Wed 06:12:29 PM 43.6510 -92.8330 195° South 506 582 36,000  Level FlightAware ADS-B
Wed 06:13:07 PM 43.5650 -92.8660 196° South 507 583 36,000  Level FlightAware ADS-B
Wed 06:13:52 PM 43.4640 -92.9040 195° South 509 586 36,000  Level FlightAware ADS-B
Wed 06:14:33 PM 43.3720 -92.9390 195° South 510 587 36,000  Level FlightAware ADS-B
Wed 06:15:17 PM 43.2710 -92.9770 195° South 512 589 36,000  Level FlightAware ADS-B
Wed 06:15:59 PM 43.1770 -93.0130 196° South 512 589 36,000  Level FlightAware ADS-B
Wed 06:16:40 PM 43.0840 -93.0480 195° South 512 589 36,000  Level FlightAware ADS-B
Wed 06:17:17 PM 42.9980 -93.0800 195° South 512 589 36,000  Level FlightAware ADS-B
Wed 06:17:57 PM 42.9060 -93.1140 195° South 512 589 36,000  Level FlightAware ADS-B
Wed 06:18:37 PM 42.8160 -93.1480 195° South 514 592 36,000  Level FlightAware ADS-B
Wed 06:19:19 PM 42.7190 -93.1840 195° South 515 593 36,000  Level FlightAware ADS-B
Wed 06:19:56 PM 42.6350 -93.2150 195° South 515 593 36,000  Level FlightAware ADS-B
Wed 06:20:37 PM 42.5390 -93.2500 195° South 515 593 36,000  Level FlightAware ADS-B
Wed 06:21:17 PM 42.4480 -93.2840 195° South 515 593 36,000  Level FlightAware ADS-B
Wed 06:21:57 PM 42.3560 -93.3170 195° South 516 594 36,000  Level FlightAware ADS-B
Wed 06:22:05 PM 42.3370 -93.3240 195° South 516 594 36,000  Level FlightAware ADS-B
Wed 06:23:12 PM 42.1790 -93.3820 195° South 518 596 36,000  Level FlightAware ADS-B
Wed 06:23:52 PM 42.0880 -93.4150 195° South 518 596 36,000  Level FlightAware ADS-B
Wed 06:24:26 PM 42.0110 -93.4430 195° South 517 595 36,000  Level FlightAware ADS-B
Wed 06:25:09 PM 41.9090 -93.4800 195° South 516 594 36,000  Level FlightAware ADS-B
Wed 06:25:53 PM 41.8080 -93.5160 195° South 516 594 36,000  Level FlightAware ADS-B
Wed 06:26:33 PM 41.7180 -93.5490 195° South 516 594 36,000  Level FlightAware ADS-B
Wed 06:27:18 PM 41.6120 -93.5860 195° South 518 596 36,000  Level FlightAware ADS-B
Wed 06:27:56 PM 41.5260 -93.6170 195° South 517 595 36,000  Level FlightAware ADS-B
Wed 06:28:49 PM 41.4100 -93.6570 195° South 518 596 36,000  Level FlightAware ADS-B
Wed 06:29:25 PM 41.3380 -93.6800 193° South 518 596 36,000  Level FlightAware ADS-B
Wed 06:30:11 PM 41.2480 -93.7110 195° South 518 596 36,000  Level FlightAware ADS-B
Wed 06:30:48 PM 41.1740 -93.7350 194° South 518 596 36,000  Level FlightAware ADS-B
Wed 06:31:24 PM 41.1030 -93.7580 194° South 518 596 36,000  Level FlightAware ADS-B
Wed 06:32:12 PM 41.0080 -93.7900 194° South 518 596 36,000  Level FlightAware ADS-B
Wed 06:32:49 PM 40.9350 -93.8140 194° South 518 596 36,000  Level FlightAware ADS-B
Wed 06:33:26 PM 40.8620 -93.8380 194° South 518 596 36,000  Level FlightAware ADS-B
Wed 06:34:03 PM 40.7890 -93.8620 194° South 518 596 36,000  Level FlightAware ADS-B
Wed 06:34:52 PM 40.6920 -93.8940 194° South 518 596 36,000  Level FlightAware ADS-B
Wed 06:35:28 PM 40.6210 -93.9170 194° South 518 596 36,000  Level FlightAware ADS-B
Wed 06:36:17 PM 40.5240 -93.9490 194° South 518 596 36,000  Level FlightAware ADS-B
Wed 06:36:53 PM 40.4530 -93.9720 194° South 518 596 36,000  Level FlightAware ADS-B
Wed 06:37:31 PM 40.3780 -93.9970 194° South 518 596 36,000  Level FlightAware ADS-B
Wed 06:38:19 PM 40.0820 -94.0860 193° South 520 598 36,000  Level FlightAware ADS-B
Wed 06:38:55 PM 39.9960 -94.1060 190° South 522 601 36,000  Level FlightAware ADS-B
Wed 06:39:40 PM 39.8890 -94.1300 190° South 523 602 36,000  Level FlightAware ADS-B
Wed 06:40:15 PM 39.8060 -94.1490 190° South 524 603 36,000  Level FlightAware ADS-B
Wed 06:41:03 PM 39.6900 -94.1750 190° South 525 604 36,000  Level FlightAware ADS-B
Wed 06:41:45 PM 39.5900 -94.1970 190° South 522 601 36,000  Level FlightAware ADS-B
Wed 06:42:25 PM 39.4950 -94.2190 190° South 521 600 36,000  Level FlightAware ADS-B
Wed 06:43:07 PM 39.3950 -94.2410 190° South 518 596 36,000  Level FlightAware ADS-B
Wed 06:43:43 PM 39.3100 -94.2600 190° South 514 592 36,000  Level FlightAware ADS-B
Wed 06:44:24 PM 39.2160 -94.2810 190° South 512 589 36,000  Level FlightAware ADS-B
Wed 06:45:07 PM 39.1130 -94.3040 190° South 512 589 36,000  Level FlightAware ADS-B
Wed 06:45:39 PM 39.0400 -94.3200 190° South 512 589 36,000  Level FlightAware ADS-B
Wed 06:46:23 PM 38.9360 -94.3430 190° South 512 589 36,000  Level FlightAware ADS-B
Wed 06:47:07 PM 38.8340 -94.3640 189° South 516 594 36,000  Level FlightAware ADS-B
Wed 06:47:45 PM 38.7400 -94.3590 178° South 533 613 36,000 286 Level FlightAware ADS-B
Wed 06:48:31 PM 38.6270 -94.3470 175° South 535 616 36,400 690 Climbing FlightAware ADS-B
Wed 06:49:12 PM 38.5260 -94.3370 176° South 532 612 37,000 429 Climbing FlightAware ADS-B
Wed 06:49:55 PM 38.4200 -94.3290 177° South 528 608 37,000  Level FlightAware ADS-B
Wed 06:50:27 PM 38.3420 -94.3240 177° South 527 606 37,000  Level FlightAware ADS-B
Wed 06:51:11 PM 38.2370 -94.3170 177° South 527 606 37,000  Level FlightAware ADS-B
Wed 06:51:53 PM 38.1330 -94.3060 175° South 524 603 37,000  Level FlightAware ADS-B
Wed 06:52:29 PM 38.0480 -94.2980 176° South 521 600 37,000  Level FlightAware ADS-B
Wed 06:53:09 PM 37.9530 -94.2880 175° South 521 600 37,000  Level FlightAware ADS-B
Wed 06:53:53 PM 37.8430 -94.2770 175° South 521 600 37,000  Level FlightAware ADS-B
Wed 06:54:27 PM 37.7640 -94.2700 176° South 520 598 37,000  Level FlightAware ADS-B
Wed 06:55:11 PM 37.6580 -94.2590 175° South 519 597 37,000  Level FlightAware ADS-B
Wed 06:55:51 PM 37.5600 -94.2490 175° South 519 597 37,000  Level FlightAware ADS-B
Wed 06:56:31 PM 37.4650 -94.2400 176° South 519 597 37,000  Level FlightAware ADS-B
Wed 06:57:13 PM 37.3680 -94.2300 175° South 520 598 37,000  Level FlightAware ADS-B
Wed 06:57:57 PM 37.2620 -94.2200 176° South 519 597 37,000  Level FlightAware ADS-B
Wed 06:58:41 PM 37.1570 -94.2100 176° South 518 596 37,000 -150 Level FlightAware ADS-B
Wed 06:59:17 PM 37.0710 -94.2010 175° South 517 595 36,800 -779 Descending FlightAware ADS-B
Wed 06:59:58 PM 36.9700 -94.1910 175° South 517 595 36,000 -593 Descending FlightAware ADS-B
Wed 07:00:38 PM 36.8750 -94.1820 176° South 516 594 36,000  Level FlightAware ADS-B
Wed 07:01:18 PM 36.7800 -94.1730 176° South 516 594 36,000  Level FlightAware ADS-B
Wed 07:02:00 PM 36.6790 -94.1630 175° South 516 594 36,000  Level FlightAware ADS-B
Wed 07:02:46 PM 36.5690 -94.1520 175° South 515 593 36,000  Level FlightAware ADS-B
Wed 07:03:24 PM 36.4800 -94.1440 176° South 514 592 36,000  Level FlightAware ADS-B
Wed 07:04:17 PM 36.3560 -94.1490 182° South 494 568 36,000  Level FlightAware ADS-B
Wed 07:04:57 PM 36.2680 -94.1770 194° South 489 563 36,000  Level FlightAware ADS-B
Wed 07:05:37 PM 36.1840 -94.2110 198° South 486 559 36,000  Level FlightAware ADS-B
Wed 07:06:18 PM 36.0960 -94.2470 198° South 487 560 36,000  Level FlightAware ADS-B
Wed 07:06:58 PM 36.0090 -94.2830 199° South 487 560 36,000  Level FlightAware ADS-B
Wed 07:07:36 PM 35.9270 -94.3150 198° South 487 560 36,000  Level FlightAware ADS-B
Wed 07:08:12 PM 35.8520 -94.3450 198° South 486 559 36,000  Level FlightAware ADS-B
Wed 07:08:50 PM 35.7820 -94.3710 197° South 486 559 36,000  Level FlightAware ADS-B
Wed 07:09:37 PM 35.8400 -94.3490 17° North 488 562 36,000  Level FlightAware ADS-B
Wed 07:10:17 PM 35.5820 -94.4520 198° South 488 562 36,000  Level FlightAware ADS-B
Wed 07:11:00 PM 35.4880 -94.4900 198° South 488 562 36,000  Level FlightAware ADS-B
Wed 07:11:57 PM 35.3760 -94.5350 198° South 488 562 36,000  Level FlightAware ADS-B
Wed 07:12:37 PM 35.2840 -94.5710 198° South 488 562 36,000  Level FlightAware ADS-B
Wed 07:13:27 PM 35.1820 -94.6110 198° South 486 559 36,000  Level FlightAware ADS-B
Wed 07:14:22 PM 35.0580 -94.6610 198° South 485 558 36,000  Level FlightAware ADS-B
Wed 07:15:02 PM 34.9800 -94.7150 210° Southwest 466 536 36,000  Level FlightAware ADS-B
Wed 07:16:09 PM 34.8810 -94.8200 221° Southwest 463 533 36,000  Level FlightAware ADS-B
Wed 07:16:49 PM 34.8220 -94.8860 223° Southwest 464 534 36,000  Level FlightAware ADS-B
Wed 07:17:25 PM 34.7730 -94.9390 222° Southwest 464 534 36,000  Level FlightAware ADS-B
Wed 07:18:14 PM 34.7070 -95.0120 222° Southwest 464 534 36,000 -563 Level FlightAware ADS-B
Wed 07:18:29 PM 34.6030 -94.9630 159° South 471 542 35,400 -2,237 Descending FlightAware ADS-B
Wed 07:19:13 PM 34.5070 -94.9610 179° South 479 551 33,800 -2,143 Descending FlightAware ADS-B
Wed 07:19:53 PM 34.4210 -94.9600 179° South 478 550 32,400 -1,074 Descending FlightAware ADS-B
Wed 07:20:48 PM 34.3110 -94.9590 180° South 478 550 32,100 -1,697 Descending FlightAware ADS-B
Wed 07:21:32 PM 34.2060 -94.9760 188° South 458 527 29,600 -2,621 Descending FlightAware ADS-B
Wed 07:22:15 PM 34.1350 -95.0440 218° Southwest 430 495 28,300 -1,905 Descending FlightAware ADS-B
Wed 07:22:35 PM 34.1140 -95.0850 238° Southwest 421 484 27,600 -2,029 Descending FlightAware ADS-B
Wed 07:23:23 PM 34.0670 -95.1790 239° Southwest 420 483 26,000 -1,977 Descending FlightAware ADS-B
Wed 07:24:03 PM 34.0270 -95.2610 240° Southwest 421 484 24,700 -1,395 Descending FlightAware ADS-B
Wed 07:24:49 PM 33.9810 -95.3520 239° Southwest 412 474 24,000 -500 Descending FlightAware ADS-B
Wed 07:25:27 PM 33.9430 -95.4290 239° Southwest 413 475 24,000  Level FlightAware ADS-B
Wed 07:26:11 PM 33.9010 -95.5140 239° Southwest 416 479 24,000  Level FlightAware ADS-B
Wed 07:26:53 PM 33.8590 -95.5970 239° Southwest 417 480 24,000  Level FlightAware ADS-B
Wed 07:27:29 PM 33.8230 -95.6700 239° Southwest 418 481 24,000  Level FlightAware ADS-B
Wed 07:28:09 PM 33.7820 -95.7510 239° Southwest 442 509 24,000 -767 Level FlightAware ADS-B
Wed 07:28:55 PM 33.7330 -95.8480 239° Southwest 449 517 22,900 -1,615 Descending FlightAware ADS-B
Wed 07:29:27 PM 33.6990 -95.9150 239° Southwest 441 507 21,900 -2,132 Descending FlightAware ADS-B
Wed 07:30:11 PM 33.6520 -96.0080 239° Southwest 437 503 20,200 -2,286 Descending FlightAware ADS-B
Wed 07:30:51 PM 33.6110 -96.0890 239° Southwest 438 504 18,700 -2,211 Descending FlightAware ADS-B
Wed 07:31:27 PM 33.5720 -96.1660 239° Southwest 430 495 17,400 -1,950 Descending FlightAware ADS-B
Wed 07:32:11 PM 33.5220 -96.2500 234° Southwest 425 489 16,100 -1,643 Descending FlightAware ADS-B
Wed 07:32:51 PM 33.4680 -96.3170 226° Southwest 410 472 15,100 -1,425 Descending FlightAware ADS-B
Wed 07:33:31 PM 33.4170 -96.3790 225° Southwest 394 453 14,200 -1,047 Descending FlightAware ADS-B
Wed 07:34:17 PM 33.3590 -96.4470 224° Southwest 366 421 13,600 -1,116 Descending FlightAware ADS-B
Wed 07:34:57 PM 33.3130 -96.5020 225° Southwest 350 403 12,600 -1,463 Descending FlightAware ADS-B
Wed 07:35:39 PM 33.2640 -96.5590 224° Southwest 341 392 11,600 -1,171 Descending FlightAware ADS-B
Wed 07:36:19 PM 33.2210 -96.6120 226° Southwest 323 372 11,000 -480 Descending FlightAware ADS-B
Wed 07:36:54 PM 33.1850 -96.6530 224° Southwest 311 358 11,000  Level FlightAware ADS-B
Wed 07:37:40 PM 33.1370 -96.7100 225° Southwest 312 359 11,000  Level FlightAware ADS-B
Wed 07:38:18 PM 33.0980 -96.7550 224° Southwest 311 358 11,000  Level FlightAware ADS-B
Wed 07:39:03 PM 33.0530 -96.8090 225° Southwest 309 356 11,000  Level FlightAware ADS-B
Wed 07:39:42 PM 33.0130 -96.8560 225° Southwest 296 341 11,000  Level FlightAware ADS-B
Wed 07:40:26 PM 32.9710 -96.8980 220° Southwest 266 306 11,000  Level FlightAware ADS-B
Wed 07:40:40 PM 32.9530 -96.9030 193° South 267 307 11,000 -840 Level FlightAware ADS-B
Wed 07:41:16 PM 32.9090 -96.9050 182° South 264 304 10,300 -1,219 Descending FlightAware ADS-B
Wed 07:41:44 PM 32.8760 -96.9050 180° South 262 302 9,700 -1,286 Descending FlightAware ADS-B
Wed 07:42:12 PM 32.8410 -96.9050 180° South 260 299 9,100 -1,200 Descending FlightAware ADS-B
Wed 07:42:24 PM 32.8270 -96.9060 183° South 258 297 8,900 -1,350 Descending FlightAware ADS-B
Wed 07:42:52 PM 32.7930 -96.9070 181° South 255 293 8,200 -1,500 Descending FlightAware ADS-B
Wed 07:43:16 PM 32.7650 -96.9070 180° South 250 288 7,600 -1,846 Descending FlightAware ADS-B
Wed 07:43:44 PM 32.7350 -96.9080 182° South 240 276 6,600 -2,250 Descending FlightAware ADS-B
Wed 07:44:12 PM 32.7030 -96.9090 182° South 236 272 5,500 -2,077 Descending FlightAware ADS-B
Wed 07:44:36 PM 32.6790 -96.9170 196° South 239 275 4,800 -1,317 Descending FlightAware ADS-B
Wed 07:44:53 PM 32.6690 -96.9350 237° Southwest 231 266 4,600 -828 Descending FlightAware ADS-B
Wed 07:45:05 PM 32.6670 -96.9480 260° West 226 260 4,400 -2,000 Descending FlightAware ADS-B
Wed 07:45:29 PM 32.6700 -96.9780 277° West 230 265 3,400 -2,167 Descending FlightAware ADS-B
Wed 07:45:41 PM 32.6800 -96.9900 315° West 232 267 3,100 -1,000 Descending FlightAware ADS-B
Wed 07:45:53 PM 32.6900 -96.9970 329° Northwest 222 255 3,000 -146 Descending FlightAware ADS-B
Wed 07:46:22 PM 32.7160 -97.0090 339° North 203 234 3,000  Level FlightAware ADS-B
Wed 07:46:49 PM 32.7400 -97.0190 341° North 204 235 3,000 -327 Level FlightAware ADS-B
Wed 07:47:17 PM 32.7660 -97.0270 345° North 201 231 2,700 -800 Descending FlightAware ADS-B
Wed 07:47:49 PM 32.7960 -97.0260 North 189 217 2,200 -1,071 Descending FlightAware ADS-B
Wed 07:48:13 PM 32.8160 -97.0260 360° North 182 209 1,700 -875 Descending FlightAware ADS-B
Wed 07:48:37 PM 32.8320 -97.0260 360° North 164 189 1,500 -558 Descending FlightAware ADS-B
Wed 07:49:39 PM 32.8780 -97.0270 359° North 160 184 900 -581 Descending FlightAware ADS-B

Login

Don't have an account? Register now (free) for customized features, flight alerts, and more!